createdAt,value
2023-03-07T00:00:51.876Z,7.25
2023-03-07T00:03:20.976Z,8.73
2023-03-07T00:05:49.114Z,8.23
2023-03-07T00:08:17.192Z,7.70
2023-03-07T00:10:45.260Z,7.80
2023-03-07T00:13:14.712Z,8.87
2023-03-07T00:15:42.628Z,8.10
2023-03-07T00:18:10.641Z,8.40
2023-03-07T00:20:38.776Z,7.73
2023-03-07T00:23:06.701Z,8.80
2023-03-07T00:25:34.562Z,8.20
2023-03-07T00:28:02.865Z,7.90
2023-03-07T00:30:32.357Z,7.28
2023-03-07T00:33:00.646Z,8.43
2023-03-07T00:35:28.714Z,7.27
2023-03-07T00:37:56.627Z,8.30
2023-03-07T00:40:24.695Z,7.63
2023-03-07T00:42:52.605Z,7.83
2023-03-07T00:45:20.671Z,8.20
2023-03-07T00:47:50.024Z,8.40
2023-03-07T00:50:18.213Z,8.00
2023-03-07T00:52:46.278Z,7.50
2023-03-07T00:55:14.159Z,8.73
2023-03-07T00:57:42.174Z,8.07
2023-03-07T01:00:11.802Z,7.17
2023-03-07T01:02:39.900Z,8.07
2023-03-07T01:05:10.076Z,8.07
2023-03-07T01:07:38.016Z,7.70
2023-03-07T01:10:06.931Z,7.27
2023-03-07T01:12:34.867Z,7.50
2023-03-07T01:15:05.247Z,7.97
2023-03-07T01:17:34.711Z,7.50
2023-03-07T01:20:05.409Z,7.70
2023-03-07T01:22:34.815Z,6.80
2023-03-07T01:25:02.691Z,7.63
2023-03-07T01:27:30.743Z,7.03
2023-03-07T01:29:58.992Z,8.33
2023-03-07T01:32:27.075Z,7.20
2023-03-07T01:34:55.389Z,7.33
2023-03-07T01:37:23.562Z,8.37
2023-03-07T01:39:54.162Z,7.33
2023-03-07T01:42:22.534Z,8.23
2023-03-07T01:45:05.858Z,6.83
2023-03-07T01:47:34.122Z,7.30
2023-03-07T01:50:06.089Z,6.93
2023-03-07T01:52:37.098Z,7.17
2023-03-07T01:55:10.976Z,6.63
2023-03-07T01:57:41.810Z,7.17
2023-03-07T02:00:13.686Z,6.43
2023-03-07T02:02:45.022Z,7.10
2023-03-07T02:05:17.068Z,6.20
2023-03-07T02:07:48.946Z,7.10
2023-03-07T02:10:21.286Z,6.03
2023-03-07T02:12:50.045Z,8.03
2023-03-07T02:15:18.335Z,7.00
2023-03-07T02:17:46.949Z,6.77
2023-03-07T02:20:27.469Z,6.70
2023-03-07T02:22:56.937Z,6.87
2023-03-07T02:25:32.709Z,6.60
2023-03-07T02:28:04.493Z,7.30
2023-03-07T02:30:32.470Z,7.13
2023-03-07T02:33:00.374Z,6.67
2023-03-07T02:35:28.789Z,10.20
2023-03-07T02:38:00.753Z,7.10
2023-03-07T02:40:32.504Z,5.80
2023-03-07T02:43:06.067Z,6.23
2023-03-07T02:45:34.127Z,6.77
2023-03-07T02:48:02.136Z,7.67
2023-03-07T02:50:30.141Z,6.90
2023-03-07T02:52:58.192Z,6.90
2023-03-07T02:55:26.160Z,6.50
2023-03-07T02:57:54.488Z,6.90
2023-03-07T03:00:24.500Z,7.20
2023-03-07T03:02:52.727Z,5.90
2023-03-07T03:05:20.794Z,6.80
2023-03-07T03:07:49.403Z,6.33
2023-03-07T03:10:17.764Z,6.43
2023-03-07T03:12:45.811Z,6.20
2023-03-07T03:15:14.214Z,6.00
2023-03-07T03:17:44.290Z,6.27
2023-03-07T03:20:13.119Z,6.50
2023-03-07T03:22:41.646Z,7.00
2023-03-07T03:25:11.603Z,6.07
2023-03-07T03:27:40.256Z,6.03
2023-03-07T03:30:11.253Z,6.83
2023-03-07T03:32:39.651Z,5.87
2023-03-07T03:35:09.988Z,6.37
2023-03-07T03:37:38.306Z,6.80
2023-03-07T03:40:14.137Z,6.10
2023-03-07T03:42:42.885Z,6.57
2023-03-07T03:45:12.377Z,6.27
2023-03-07T03:47:40.290Z,6.93
2023-03-07T03:50:11.504Z,6.20
2023-03-07T03:52:39.418Z,6.50
2023-03-07T03:55:08.241Z,6.83
2023-03-07T03:57:36.292Z,6.73
2023-03-07T04:00:08.538Z,6.40
2023-03-07T04:02:36.584Z,6.03
2023-03-07T04:05:05.317Z,6.87
2023-03-07T04:07:34.935Z,5.90
2023-03-07T04:10:02.991Z,6.10
2023-03-07T04:12:30.912Z,7.20
2023-03-07T04:14:58.821Z,5.77
2023-03-07T04:17:26.865Z,6.10
2023-03-07T04:19:54.801Z,5.97
2023-03-07T04:22:22.818Z,6.30
2023-03-07T04:24:52.201Z,6.30
2023-03-07T04:27:20.093Z,7.47
2023-03-07T04:29:48.200Z,7.00
2023-03-07T04:32:16.238Z,6.90
2023-03-07T04:34:44.157Z,6.10
2023-03-07T04:37:12.150Z,6.60
2023-03-07T04:39:40.057Z,6.70
2023-03-07T04:42:09.875Z,5.40
2023-03-07T04:44:37.919Z,7.37
2023-03-07T04:47:06.009Z,7.07
2023-03-07T04:49:34.048Z,6.13
2023-03-07T04:52:01.926Z,7.20
2023-03-07T04:54:30.021Z,6.70
2023-03-07T04:56:58.234Z,6.60
2023-03-07T04:59:27.740Z,6.60
2023-03-07T05:01:55.897Z,6.30
2023-03-07T05:04:23.887Z,6.70
2023-03-07T05:06:52.671Z,7.80
2023-03-07T05:09:20.599Z,7.17
2023-03-07T05:11:48.613Z,7.33
2023-03-07T05:14:16.578Z,5.93
2023-03-07T05:16:45.844Z,6.97
2023-03-07T05:19:14.610Z,6.80
2023-03-07T05:21:44.185Z,6.23
2023-03-07T05:24:12.236Z,7.60
2023-03-07T05:26:40.838Z,6.60
2023-03-07T05:29:09.087Z,6.93
2023-03-07T05:31:37.117Z,7.00
2023-03-07T05:34:06.575Z,6.93
2023-03-07T05:36:34.527Z,6.53
2023-03-07T05:39:02.441Z,7.20
2023-03-07T05:41:30.558Z,6.80
2023-03-07T05:43:58.477Z,6.63
2023-03-07T05:46:26.813Z,6.80
2023-03-07T05:48:55.255Z,6.67
2023-03-07T05:51:24.546Z,7.37
2023-03-07T05:53:52.599Z,7.10
2023-03-07T05:56:20.487Z,6.77
2023-03-07T05:58:48.356Z,6.90
2023-03-07T06:01:16.406Z,7.40
2023-03-07T06:03:44.918Z,7.23
2023-03-07T06:06:13.372Z,7.43
2023-03-07T06:08:42.819Z,7.70
2023-03-07T06:11:11.203Z,7.23
2023-03-07T06:13:39.240Z,7.97
2023-03-07T06:16:07.563Z,7.00
2023-03-07T06:18:35.691Z,8.20
2023-03-07T06:21:05.905Z,7.20
2023-03-07T06:23:35.335Z,7.03
2023-03-07T06:26:05.331Z,7.80
2023-03-07T06:28:33.405Z,7.00
2023-03-07T06:31:01.616Z,6.93
2023-03-07T06:33:30.189Z,7.40
2023-03-07T06:35:58.405Z,7.00
2023-03-07T06:38:27.709Z,7.00
2023-03-07T06:40:57.264Z,7.30
2023-03-07T06:43:26.855Z,7.70
2023-03-07T06:45:54.856Z,7.63
2023-03-07T06:48:23.114Z,7.23
2023-03-07T06:50:51.267Z,6.77
2023-03-07T06:53:19.275Z,7.00
2023-03-07T06:55:50.783Z,7.73
2023-03-07T06:58:19.142Z,7.70
2023-03-07T07:00:48.412Z,6.90
2023-03-07T07:03:17.517Z,6.90
2023-03-07T07:05:45.407Z,7.37
2023-03-07T07:08:14.051Z,5.77
2023-03-07T07:10:42.406Z,7.13
2023-03-07T07:13:12.718Z,6.80
2023-03-07T07:15:40.692Z,7.60
2023-03-07T07:18:13.114Z,7.70
2023-03-07T07:20:41.180Z,6.23
2023-03-07T07:23:09.222Z,6.43
2023-03-07T07:25:38.850Z,6.57
2023-03-07T07:28:06.790Z,5.37
2023-03-07T07:30:34.886Z,7.47
2023-03-07T07:33:04.780Z,6.40
2023-03-07T07:35:34.435Z,6.60
2023-03-07T07:38:03.393Z,7.00
2023-03-07T07:40:31.666Z,6.57
2023-03-07T07:42:59.537Z,6.63
2023-03-07T07:45:27.688Z,6.87
2023-03-07T07:47:55.709Z,6.87
2023-03-07T07:50:24.590Z,5.97
2023-03-07T07:52:55.367Z,6.10
2023-03-07T07:55:24.894Z,6.30
2023-03-07T07:57:53.362Z,5.50
2023-03-07T08:00:22.193Z,5.53
2023-03-07T08:02:50.680Z,5.90
2023-03-07T08:05:19.634Z,6.77
2023-03-07T08:07:47.814Z,5.53
2023-03-07T08:10:17.592Z,6.60
2023-03-07T08:12:46.349Z,6.17
2023-03-07T08:15:17.022Z,6.00
2023-03-07T08:17:44.974Z,6.60
2023-03-07T08:20:13.501Z,7.20
2023-03-07T08:22:41.689Z,4.93
2023-03-07T08:25:15.300Z,6.27
2023-03-07T08:27:44.788Z,4.80
2023-03-07T08:30:14.114Z,4.97
2023-03-07T08:32:42.216Z,5.57
2023-03-07T08:35:10.467Z,5.77
2023-03-07T08:37:38.514Z,5.53
2023-03-07T08:40:07.783Z,6.33
2023-03-07T08:42:36.189Z,4.97
2023-03-07T08:45:06.122Z,6.00
2023-03-07T08:47:34.167Z,5.87
2023-03-07T08:50:02.189Z,6.00
2023-03-07T08:52:30.306Z,6.27
2023-03-07T08:54:58.203Z,5.57
2023-03-07T08:57:26.272Z,5.80
2023-03-07T08:59:54.191Z,5.33
2023-03-07T09:02:23.603Z,6.37
2023-03-07T09:04:51.645Z,4.40
2023-03-07T09:07:19.834Z,5.40
2023-03-07T09:09:47.791Z,6.00
2023-03-07T09:12:15.859Z,5.63
2023-03-07T09:14:43.793Z,4.80
2023-03-07T09:17:11.868Z,5.37
2023-03-07T09:19:42.526Z,5.13
2023-03-07T09:22:10.661Z,6.00
2023-03-07T09:24:38.571Z,6.37
2023-03-07T09:27:06.834Z,7.77
2023-03-07T09:29:34.752Z,6.37
2023-03-07T09:32:04.553Z,5.67
2023-03-07T09:34:33.063Z,7.20
2023-03-07T09:37:02.472Z,6.57
2023-03-07T09:39:30.643Z,5.63
2023-03-07T09:42:08.958Z,5.65
2023-03-07T09:45:01.362Z,6.40
2023-03-07T09:47:47.926Z,5.37
2023-03-07T09:50:24.163Z,6.28
2023-03-07T09:52:58.234Z,5.40
2023-03-07T09:55:27.923Z,5.57
2023-03-07T09:57:59.687Z,5.90
2023-03-07T10:00:32.153Z,5.57
2023-03-07T10:03:14.300Z,6.03
2023-03-07T10:05:46.281Z,6.03
2023-03-07T10:08:18.607Z,5.60
2023-03-07T10:10:55.389Z,6.13
2023-03-07T10:13:45.480Z,5.33
2023-03-07T10:16:22.042Z,6.40
2023-03-07T10:19:01.777Z,6.50
2023-03-07T10:21:40.018Z,5.72
2023-03-07T10:24:37.817Z,6.03
2023-03-07T10:27:08.877Z,6.65
2023-03-07T10:29:45.924Z,6.10
2023-03-07T10:32:21.779Z,5.53
2023-03-07T10:34:56.150Z,7.80
2023-03-07T10:37:32.710Z,6.23
2023-03-07T10:40:04.958Z,6.22
2023-03-07T10:42:39.624Z,5.80
2023-03-07T10:45:09.143Z,6.20
2023-03-07T10:47:37.951Z,5.60
2023-03-07T10:50:18.447Z,6.43
2023-03-07T10:52:51.155Z,5.60
2023-03-07T10:55:41.167Z,6.50
2023-03-07T10:58:16.372Z,6.40
2023-03-07T11:00:45.378Z,6.50
2023-03-07T11:03:27.266Z,8.17
2023-03-07T11:05:55.457Z,6.37
2023-03-07T11:08:31.881Z,6.27
2023-03-07T11:11:02.436Z,6.00
2023-03-07T11:13:31.695Z,5.83
2023-03-07T11:16:25.740Z,5.93
2023-03-07T11:18:53.888Z,5.77
2023-03-07T11:21:31.402Z,6.95
2023-03-07T11:24:01.472Z,6.63
2023-03-07T11:26:33.216Z,6.97
2023-03-07T11:29:09.421Z,6.72
2023-03-07T11:31:49.188Z,6.97
2023-03-07T11:34:29.692Z,7.03
2023-03-07T11:37:04.514Z,6.73
2023-03-07T11:39:38.654Z,7.00
2023-03-07T11:42:16.482Z,6.80
2023-03-07T11:44:52.953Z,7.23
2023-03-07T11:47:39.617Z,6.40
2023-03-07T11:50:19.111Z,7.00
2023-03-07T11:53:10.738Z,7.70
2023-03-07T11:55:43.119Z,7.07
2023-03-07T11:58:30.311Z,6.77
2023-03-07T12:01:10.884Z,7.13
2023-03-07T12:04:02.818Z,6.53
2023-03-07T12:06:38.321Z,7.53
2023-03-07T12:09:30.120Z,7.17
2023-03-07T12:12:19.450Z,6.50
2023-03-07T12:14:58.722Z,6.43
2023-03-07T12:17:39.115Z,7.57
2023-03-07T12:20:26.947Z,7.90
2023-03-07T12:23:03.719Z,6.83
2023-03-07T12:25:36.548Z,7.10
2023-03-07T12:28:11.575Z,7.13
2023-03-07T12:30:56.130Z,7.30
2023-03-07T12:33:37.839Z,7.00
2023-03-07T12:36:10.829Z,6.70
2023-03-07T12:38:44.300Z,6.40
2023-03-07T12:41:24.086Z,6.73
2023-03-07T12:43:58.013Z,6.40
2023-03-07T12:46:37.493Z,7.67
2023-03-07T12:49:15.968Z,6.73
2023-03-07T12:51:50.479Z,6.50
2023-03-07T12:54:25.376Z,6.50
2023-03-07T12:56:57.044Z,6.90
2023-03-07T12:59:25.859Z,6.82
2023-03-07T13:02:01.798Z,7.85
2023-03-07T13:04:33.704Z,6.30
2023-03-07T13:07:08.798Z,6.40
2023-03-07T13:09:40.132Z,6.47
2023-03-07T13:12:33.586Z,6.60
2023-03-07T13:15:02.882Z,7.40
2023-03-07T13:17:59.198Z,6.43
2023-03-07T13:20:45.167Z,6.37
2023-03-07T13:23:28.948Z,6.00
2023-03-07T13:26:02.176Z,6.90
2023-03-07T13:28:48.022Z,5.80
2023-03-07T13:31:41.421Z,6.77
2023-03-07T13:34:46.787Z,6.10
2023-03-07T13:37:49.070Z,7.10
2023-03-07T13:40:49.981Z,6.73
2023-03-07T13:43:59.790Z,6.80
2023-03-07T13:46:51.946Z,5.60
2023-03-07T13:49:47.009Z,7.00
2023-03-07T13:52:54.115Z,7.30
2023-03-07T13:55:28.236Z,6.50
2023-03-07T13:57:59.276Z,6.50
2023-03-07T14:00:34.765Z,6.70
2023-03-07T14:03:03.276Z,8.03
2023-03-07T14:05:35.478Z,7.10
2023-03-07T14:08:03.906Z,7.10
2023-03-07T14:10:33.280Z,5.57
2023-03-07T14:13:20.402Z,8.10
2023-03-07T14:16:01.307Z,6.70
2023-03-07T14:18:43.091Z,6.68
2023-03-07T14:21:19.122Z,6.53
2023-03-07T14:24:15.620Z,6.43
2023-03-07T14:26:45.593Z,6.60
2023-03-07T14:29:20.185Z,6.73
2023-03-07T14:31:49.244Z,7.70
2023-03-07T14:34:18.873Z,6.27
2023-03-07T14:36:51.920Z,6.23
2023-03-07T14:39:22.024Z,6.60
2023-03-07T14:41:57.193Z,6.57
2023-03-07T14:44:50.607Z,6.30
2023-03-07T14:47:31.116Z,6.20
2023-03-07T14:50:09.650Z,6.90
2023-03-07T14:52:39.660Z,7.10
2023-03-07T14:55:14.514Z,6.03
2023-03-07T14:57:46.435Z,5.97
2023-03-07T15:00:23.949Z,6.40
2023-03-07T15:02:53.577Z,5.40
2023-03-07T15:05:23.501Z,6.30
2023-03-07T15:07:54.900Z,6.40
2023-03-07T15:10:27.741Z,6.37
2023-03-07T15:12:57.797Z,5.70
2023-03-07T15:15:33.589Z,5.83
2023-03-07T15:18:07.916Z,5.93
2023-03-07T15:20:36.160Z,5.77
2023-03-07T15:23:08.030Z,6.17
2023-03-07T15:25:38.752Z,7.20
2023-03-07T15:28:16.747Z,6.57
2023-03-07T15:30:49.928Z,6.27
2023-03-07T15:33:24.869Z,6.80
2023-03-07T15:36:18.297Z,6.83
2023-03-07T15:38:49.490Z,7.70
2023-03-07T15:41:34.442Z,6.03
2023-03-07T15:44:18.747Z,5.90
2023-03-07T15:46:49.570Z,6.03
2023-03-07T15:49:23.880Z,6.30
2023-03-07T15:51:54.509Z,7.10
2023-03-07T15:54:32.573Z,6.87
2023-03-07T15:57:05.013Z,5.60
2023-03-07T15:59:36.224Z,6.20
2023-03-07T16:02:40.598Z,6.33
2023-03-07T16:05:33.140Z,7.40
2023-03-07T16:08:01.410Z,7.20
2023-03-07T16:10:32.870Z,6.90
2023-03-07T16:13:02.053Z,6.43
2023-03-07T16:15:30.342Z,6.27
2023-03-07T16:17:58.704Z,6.30
2023-03-07T16:20:29.108Z,6.10
2023-03-07T16:22:57.450Z,6.40
2023-03-07T16:25:29.590Z,6.50
2023-03-07T16:28:00.732Z,6.93
2023-03-07T16:30:30.223Z,6.40
2023-03-07T16:32:58.154Z,6.20
2023-03-07T16:35:28.556Z,7.40
2023-03-07T16:37:57.040Z,6.80
2023-03-07T16:40:26.149Z,7.07
2023-03-07T16:42:54.682Z,7.00
2023-03-07T16:45:26.597Z,7.40
2023-03-07T16:47:56.524Z,7.10
2023-03-07T16:50:27.015Z,6.60
2023-03-07T16:52:54.958Z,6.73
2023-03-07T16:55:23.465Z,7.60
2023-03-07T16:57:55.513Z,6.93
2023-03-07T17:00:27.380Z,6.30
2023-03-07T17:02:58.335Z,7.25
2023-03-07T17:05:28.113Z,6.75
2023-03-07T17:07:57.343Z,6.60
2023-03-07T17:10:27.361Z,6.85
2023-03-07T17:12:57.157Z,9.00
2023-03-07T17:15:30.904Z,7.40
2023-03-07T17:17:59.855Z,8.53
2023-03-07T17:20:28.591Z,7.87
2023-03-07T17:22:56.937Z,9.03
2023-03-07T17:25:26.157Z,7.90
2023-03-07T17:27:57.947Z,7.80
2023-03-07T17:30:29.445Z,8.70
2023-03-07T17:32:58.314Z,7.90
2023-03-07T17:35:28.063Z,7.33
2023-03-07T17:37:56.128Z,8.63
2023-03-07T17:40:24.145Z,8.43
2023-03-07T17:42:54.890Z,7.83
2023-03-07T17:45:23.055Z,8.10
2023-03-07T17:47:54.149Z,7.50
2023-03-07T17:50:23.868Z,7.63
2023-03-07T17:52:52.992Z,8.70
2023-03-07T17:55:21.551Z,8.63
2023-03-07T17:57:49.423Z,9.00
2023-03-07T18:00:20.659Z,7.83
2023-03-07T18:02:49.004Z,7.78
2023-03-07T18:05:19.843Z,8.33
2023-03-07T18:07:49.245Z,8.53
2023-03-07T18:10:17.445Z,7.67
2023-03-07T18:12:46.128Z,9.57
2023-03-07T18:15:16.271Z,7.85
2023-03-07T18:17:49.183Z,7.73
2023-03-07T18:20:20.606Z,8.17
2023-03-07T18:22:48.800Z,7.93
2023-03-07T18:25:18.842Z,7.83
2023-03-07T18:27:47.361Z,8.10
2023-03-07T18:30:16.419Z,8.45
2023-03-07T18:32:44.694Z,8.33
2023-03-07T18:35:15.626Z,8.43
2023-03-07T18:37:45.511Z,9.00
2023-03-07T18:40:14.090Z,8.53
2023-03-07T18:42:42.894Z,8.40
2023-03-07T18:45:12.087Z,9.80
2023-03-07T18:47:40.018Z,8.47
2023-03-07T18:50:09.521Z,8.83
2023-03-07T18:52:37.565Z,8.27
2023-03-07T18:55:07.485Z,8.07
2023-03-07T18:57:35.394Z,9.17
2023-03-07T19:00:05.549Z,9.53
2023-03-07T19:02:33.534Z,9.13
2023-03-07T19:05:01.766Z,8.60
2023-03-07T19:07:31.467Z,8.43
2023-03-07T19:09:59.573Z,8.83
2023-03-07T19:12:28.883Z,9.07
2023-03-07T19:14:56.837Z,8.90
2023-03-07T19:17:25.622Z,8.70
2023-03-07T19:19:58.992Z,10.30
2023-03-07T19:22:29.799Z,8.90
2023-03-07T19:24:57.627Z,8.97
2023-03-07T19:27:27.781Z,9.97
2023-03-07T19:29:57.209Z,8.47
2023-03-07T19:32:25.264Z,10.20
2023-03-07T19:34:53.169Z,10.30
2023-03-07T19:37:21.258Z,10.27
2023-03-07T19:39:51.950Z,9.40
2023-03-07T19:42:20.094Z,9.60
2023-03-07T19:44:48.196Z,10.30
2023-03-07T19:47:17.668Z,9.57
2023-03-07T19:49:45.627Z,9.80
2023-03-07T19:52:13.616Z,9.07
2023-03-07T19:54:41.767Z,8.87
2023-03-07T19:57:12.857Z,8.40
2023-03-07T19:59:40.731Z,9.17
2023-03-07T20:02:10.454Z,8.37
2023-03-07T20:04:39.833Z,7.57
2023-03-07T20:07:07.861Z,9.00
2023-03-07T20:09:35.945Z,10.07
2023-03-07T20:12:03.845Z,8.60
2023-03-07T20:14:31.893Z,7.75
2023-03-07T20:16:59.781Z,9.57
2023-03-07T20:19:27.995Z,8.98
2023-03-07T20:21:57.266Z,8.70
2023-03-07T20:24:25.437Z,8.52
2023-03-07T20:26:53.338Z,8.57
2023-03-07T20:29:21.228Z,9.40
2023-03-07T20:31:50.948Z,9.67
2023-03-07T20:34:19.024Z,9.03
2023-03-07T20:36:47.182Z,9.63
2023-03-07T20:39:16.647Z,8.00
2023-03-07T20:41:44.928Z,8.53
2023-03-07T20:44:14.907Z,8.30
2023-03-07T20:46:43.066Z,8.57
2023-03-07T20:49:13.794Z,6.97
2023-03-07T20:51:42.563Z,7.87
2023-03-07T20:54:13.463Z,8.57
2023-03-07T20:56:44.088Z,8.30
2023-03-07T20:59:15.448Z,6.83
2023-03-07T21:01:43.784Z,6.90
2023-03-07T21:04:13.398Z,6.70
2023-03-07T21:06:42.924Z,7.80
2023-03-07T21:09:12.681Z,7.47
2023-03-07T21:11:46.071Z,8.40
2023-03-07T21:14:14.219Z,7.00
2023-03-07T21:16:43.051Z,8.90
2023-03-07T21:19:12.089Z,8.80
2023-03-07T21:21:41.054Z,7.40
2023-03-07T21:24:09.972Z,7.13
2023-03-07T21:26:37.904Z,7.50
2023-03-07T21:29:09.090Z,7.40
2023-03-07T21:31:38.839Z,7.90
2023-03-07T21:34:09.262Z,8.07
2023-03-07T21:36:37.318Z,8.30
2023-03-07T21:39:07.841Z,7.60
2023-03-07T21:41:36.017Z,7.73
2023-03-07T21:44:04.533Z,8.53
2023-03-07T21:46:33.990Z,7.97
2023-03-07T21:49:02.742Z,8.53
2023-03-07T21:51:30.797Z,6.80
2023-03-07T21:53:58.864Z,8.13
2023-03-07T21:56:27.492Z,8.37
2023-03-07T21:58:55.588Z,8.03
2023-03-07T22:01:26.218Z,9.13
2023-03-07T22:03:57.344Z,7.57
2023-03-07T22:06:25.927Z,8.23
2023-03-07T22:08:53.924Z,7.47
2023-03-07T22:11:22.493Z,7.40
2023-03-07T22:13:50.523Z,9.10
2023-03-07T22:16:21.539Z,8.53
2023-03-07T22:18:55.203Z,8.20
2023-03-07T22:21:25.163Z,8.60
2023-03-07T22:23:57.436Z,7.80
2023-03-07T22:26:25.574Z,8.43
2023-03-07T22:28:53.773Z,7.70
2023-03-07T22:31:21.924Z,7.63
2023-03-07T22:33:50.234Z,7.10
2023-03-07T22:36:19.659Z,7.60
2023-03-07T22:38:47.718Z,7.20
2023-03-07T22:41:17.807Z,6.40
2023-03-07T22:43:46.133Z,7.13
2023-03-07T22:46:14.675Z,7.77
2023-03-07T22:48:42.630Z,7.90
2023-03-07T22:51:14.056Z,6.53
2023-03-07T22:53:43.476Z,8.90
2023-03-07T22:56:16.798Z,7.70
2023-03-07T22:58:45.054Z,8.00
2023-03-07T23:01:14.949Z,8.33
2023-03-07T23:03:43.237Z,8.77
2023-03-07T23:06:11.298Z,8.63
2023-03-07T23:08:39.465Z,7.70
2023-03-07T23:11:10.346Z,8.10
2023-03-07T23:13:38.557Z,6.80
2023-03-07T23:16:08.829Z,8.30
2023-03-07T23:18:37.812Z,9.07
2023-03-07T23:21:07.065Z,8.27
2023-03-07T23:23:35.656Z,7.93
2023-03-07T23:26:04.264Z,8.50
2023-03-07T23:28:34.099Z,8.60
2023-03-07T23:31:02.369Z,7.40
2023-03-07T23:33:30.285Z,8.13
2023-03-07T23:36:00.402Z,8.33
2023-03-07T23:38:28.560Z,8.73
2023-03-07T23:40:56.616Z,7.70
2023-03-07T23:43:24.698Z,8.10
2023-03-07T23:45:54.103Z,8.43
2023-03-07T23:48:22.136Z,7.33
2023-03-07T23:50:50.477Z,7.57
2023-03-07T23:53:18.424Z,7.57
2023-03-07T23:55:46.449Z,7.30
2023-03-07T23:58:14.459Z,8.00
